Time;durP1;ratioP1;P1;durP2;ratioP2;P2;SDS_P1;SDS_P2;PMS_P1;PMS_P2;Temp;Humidity;BMP_temperature;BMP_pressure;BME280_temperature;BME280_humidity;BME280_pressure;Samples;Min_cycle;Max_cycle;Signal;HPM_P1;HPM_P2
2022/05/28 00:01:11;;;;;;;3.00;1.40;;;8.60;99.90;;;;;;5102190;28;20634;-44
2022/05/28 00:03:38;;;;;;;5.33;1.40;;;8.60;99.90;;;;;;5101905;28;20254;-44
2022/05/28 00:06:12;;;;;;;3.00;1.33;;;8.50;99.90;;;;;;5103128;28;20190;-44
2022/05/28 00:08:38;;;;;;;3.37;1.40;;;8.50;99.90;;;;;;5102553;28;20203;-41
2022/05/28 00:11:14;;;;;;;3.00;1.20;;;8.40;99.90;;;;;;5102353;28;20630;-42
2022/05/28 00:13:40;;;;;;;5.93;1.50;;;8.40;99.90;;;;;;5102178;28;20163;-43
2022/05/28 00:16:06;;;;;;;5.00;1.30;;;8.40;99.90;;;;;;5102608;28;20186;-42
2022/05/28 00:18:32;;;;;;;4.00;1.27;;;8.40;99.90;;;;;;5101997;28;20223;-44
2022/05/28 00:20:58;;;;;;;4.53;1.30;;;8.30;99.90;;;;;;5100384;28;20276;-42
2022/05/28 00:23:24;;;;;;;4.50;1.13;;;8.20;99.90;;;;;;5100807;28;20210;-44
2022/05/28 00:25:50;;;;;;;2.93;1.33;;;8.20;99.90;;;;;;5099208;28;20179;-44
2022/05/28 00:28:21;;;;;;;3.03;1.20;;;8.20;99.90;;;;;;5101045;28;20199;-41
2022/05/28 00:30:47;;;;;;;5.17;1.40;;;8.10;99.90;;;;;;5100448;28;20226;-44
2022/05/28 00:33:12;;;;;;;5.00;1.50;;;8.10;99.90;;;;;;5081577;28;20179;-43
2022/05/28 00:35:38;;;;;;;3.77;1.60;;;8.10;99.90;;;;;;5082384;28;20202;-41
2022/05/28 00:38:03;;;;;;;5.83;1.50;;;8.10;99.90;;;;;;5081517;28;20199;-44
2022/05/28 00:40:29;;;;;;;4.67;1.57;;;8.10;99.90;;;;;;5099121;28;20174;-42
2022/05/28 00:43:03;;;;;;;4.90;1.90;;;8.10;99.90;;;;;;5099534;28;20171;-42
2022/05/28 00:45:32;;;;;;;3.67;1.77;;;8.10;99.90;;;;;;5099370;28;20225;-41
2022/05/28 00:48:02;;;;;;;5.73;1.83;;;8.10;99.90;;;;;;5079428;28;20219;-36
2022/05/28 00:50:29;;;;;;;8.27;1.87;;;8.10;99.90;;;;;;5097785;28;20179;-41
2022/05/28 00:52:54;;;;;;;7.03;1.57;;;8.10;99.90;;;;;;5101491;28;20182;-44
2022/05/28 00:55:20;;;;;;;8.77;1.60;;;8.10;99.90;;;;;;5101148;28;20203;-43
2022/05/28 00:57:46;;;;;;;3.67;1.77;;;8.10;99.90;;;;;;5101430;28;20195;-43
2022/05/28 01:00:15;;;;;;;9.73;1.73;;;8.10;99.90;;;;;;5101363;28;20620;-41
2022/05/28 01:02:57;;;;;;;7.50;2.33;;;8.10;99.90;;;;;;5101438;28;20648;-44
2022/05/28 01:05:41;;;;;;;6.63;2.40;;;8.10;99.90;;;;;;5101971;28;20159;-42
2022/05/28 01:08:15;;;;;;;5.13;1.80;;;8.10;99.90;;;;;;5100582;28;20732;-42
2022/05/28 01:10:59;;;;;;;9.80;1.70;;;8.10;99.90;;;;;;5101608;28;20661;-43
2022/05/28 01:13:38;;;;;;;5.37;1.90;;;8.10;99.90;;;;;;5101644;28;20159;-44
2022/05/28 01:16:17;;;;;;;3.27;1.73;;;8.10;99.90;;;;;;5101744;28;20555;-43
2022/05/28 01:18:54;;;;;;;5.63;1.90;;;8.10;99.90;;;;;;5101987;28;20195;-42
2022/05/28 01:21:54;;;;;;;6.27;1.93;;;8.10;99.90;;;;;;5064660;28;1065474;-43
2022/05/28 01:24:28;;;;;;;5.80;1.63;;;8.10;99.90;;;;;;5103600;28;20250;-43
2022/05/28 01:26:56;;;;;;;4.37;1.47;;;8.10;99.90;;;;;;5104016;28;20159;-43
2022/05/28 01:29:24;;;;;;;5.10;1.63;;;8.10;99.90;;;;;;5101569;28;20219;-43
2022/05/28 01:31:51;;;;;;;4.17;2.00;;;8.10;99.90;;;;;;5100744;28;20258;-41
2022/05/28 01:34:19;;;;;;;4.43;1.90;;;8.10;99.90;;;;;;5101277;28;20536;-44
2022/05/28 01:36:47;;;;;;;6.30;1.53;;;8.00;99.90;;;;;;5100544;28;20225;-43
2022/05/28 01:39:14;;;;;;;5.27;1.70;;;8.00;99.90;;;;;;5100650;28;20195;-42
2022/05/28 01:41:40;;;;;;;6.33;1.80;;;8.00;99.90;;;;;;5100847;28;20239;-44
2022/05/28 01:44:11;;;;;;;12.60;2.20;;;8.00;99.90;;;;;;5100763;28;20599;-42
2022/05/28 01:46:39;;;;;;;6.60;1.80;;;8.00;99.90;;;;;;5100832;28;20171;-42
2022/05/28 01:49:09;;;;;;;10.33;2.30;;;7.90;99.90;;;;;;5100221;28;20202;-43
2022/05/28 01:51:40;;;;;;;5.63;1.77;;;8.00;99.90;;;;;;5100588;28;20178;-43
2022/05/28 01:54:07;;;;;;;8.07;1.80;;;7.90;99.90;;;;;;5101026;28;20175;-42
2022/05/28 01:56:38;;;;;;;6.73;1.57;;;8.00;99.90;;;;;;5100014;28;20210;-42
2022/05/28 01:59:04;;;;;;;6.23;1.97;;;8.00;99.90;;;;;;5099574;28;20199;-42
2022/05/28 02:01:30;;;;;;;5.13;1.63;;;8.00;99.90;;;;;;5100913;28;20183;-43
2022/05/28 02:03:58;;;;;;;5.97;1.73;;;8.00;99.90;;;;;;5099344;28;20171;-42
2022/05/28 02:06:25;;;;;;;5.13;2.10;;;8.00;99.90;;;;;;5099398;28;20181;-44
2022/05/28 02:08:53;;;;;;;6.30;2.10;;;8.00;99.90;;;;;;5099731;28;20213;-43
2022/05/28 02:11:23;;;;;;;2.93;1.80;;;8.10;99.90;;;;;;5099487;28;20273;-43
2022/05/28 02:14:17;;;;;;;7.03;1.93;;;8.10;99.90;;;;;;5099844;28;20239;-44
2022/05/28 02:16:56;;;;;;;17.83;2.60;;;8.10;99.90;;;;;;5099726;28;20202;-44
2022/05/28 02:19:45;;;;;;;4.87;1.83;;;8.20;99.90;;;;;;5099577;28;20202;-41
2022/05/28 02:22:17;;;;;;;5.83;1.93;;;8.20;99.90;;;;;;5099363;28;20205;-43
2022/05/28 02:24:51;;;;;;;10.47;2.20;;;8.30;99.90;;;;;;5099355;28;20190;-42
2022/05/28 02:27:19;;;;;;;7.03;1.90;;;8.30;99.90;;;;;;5099311;28;20531;-43
2022/05/28 02:29:45;;;;;;;9.20;2.00;;;8.40;99.90;;;;;;5099036;28;20183;-44
2022/05/28 02:32:19;;;;;;;7.80;1.80;;;8.40;99.90;;;;;;5099882;28;20266;-43
2022/05/28 02:34:45;;;;;;;6.73;2.00;;;8.50;99.90;;;;;;5099395;28;20159;-41
2022/05/28 02:37:16;;;;;;;8.53;1.57;;;8.50;99.90;;;;;;5098740;28;20198;-41
2022/05/28 02:39:42;;;;;;;9.63;2.20;;;8.50;99.90;;;;;;5099754;28;20584;-42
2022/05/28 02:42:08;;;;;;;11.70;2.00;;;8.60;99.90;;;;;;5099345;28;20546;-41
2022/05/28 02:44:34;;;;;;;7.17;2.20;;;8.60;99.90;;;;;;5099755;28;20208;-42
2022/05/28 02:47:00;;;;;;;7.63;2.47;;;8.70;99.90;;;;;;5097895;28;20190;-44
2022/05/28 02:49:25;;;;;;;7.90;2.37;;;8.70;99.90;;;;;;5099647;28;20199;-44
2022/05/28 02:51:52;;;;;;;8.87;2.50;;;8.80;99.90;;;;;;5083181;28;20186;-42
2022/05/28 02:54:19;;;;;;;9.83;2.03;;;8.80;99.90;;;;;;5101384;28;20613;-43
2022/05/28 02:56:45;;;;;;;9.70;2.03;;;8.80;99.90;;;;;;5101362;28;20214;-43
2022/05/28 02:59:10;;;;;;;8.30;2.03;;;8.80;99.90;;;;;;5101649;28;20212;-43
2022/05/28 03:01:36;;;;;;;11.07;2.20;;;8.80;99.90;;;;;;5082302;28;20665;-43
2022/05/28 03:04:04;;;;;;;9.40;2.30;;;8.80;99.90;;;;;;5085238;28;20242;-43
2022/05/28 03:06:30;;;;;;;5.80;2.20;;;8.80;99.90;;;;;;5104036;28;20235;-42
2022/05/28 03:08:55;;;;;;;5.57;2.20;;;8.80;99.90;;;;;;5104454;28;20230;-42
2022/05/28 03:11:21;;;;;;;9.23;2.27;;;8.80;99.90;;;;;;5107123;28;20190;-43
2022/05/28 03:13:47;;;;;;;8.00;2.10;;;8.80;99.90;;;;;;5108319;28;20187;-43
2022/05/28 03:16:13;;;;;;;10.40;2.00;;;8.80;99.90;;;;;;5108938;28;20218;-43
2022/05/28 03:18:40;;;;;;;10.90;2.17;;;8.70;99.90;;;;;;5107724;28;20201;-44
2022/05/28 03:21:06;;;;;;;6.40;1.93;;;8.80;99.90;;;;;;5103478;28;20225;-41
2022/05/28 03:23:32;;;;;;;5.50;2.10;;;8.70;99.90;;;;;;5102871;28;20187;-43
2022/05/28 03:25:58;;;;;;;9.23;2.40;;;8.70;99.90;;;;;;5102487;28;20183;-42
2022/05/28 03:28:23;;;;;;;7.30;2.23;;;8.70;99.90;;;;;;5084157;28;20203;-42
2022/05/28 03:30:49;;;;;;;7.93;2.57;;;8.80;99.90;;;;;;5102849;28;20183;-42
2022/05/28 03:33:15;;;;;;;9.00;2.73;;;8.70;99.90;;;;;;5102578;28;20185;-43
2022/05/28 03:35:41;;;;;;;5.03;1.90;;;8.70;99.90;;;;;;5102232;28;20668;-41
2022/05/28 03:38:07;;;;;;;11.40;3.07;;;8.80;99.90;;;;;;5083714;28;20195;-43
2022/05/28 03:40:34;;;;;;;5.37;1.93;;;8.80;99.90;;;;;;5102646;28;20525;-42
2022/05/28 03:43:00;;;;;;;12.60;2.63;;;8.80;99.90;;;;;;5084709;28;20175;-43
2022/05/28 03:45:27;;;;;;;9.87;2.60;;;8.80;99.90;;;;;;5103026;28;20179;-42
2022/05/28 03:47:54;;;;;;;5.30;1.97;;;8.80;99.90;;;;;;5101916;28;20203;-43
2022/05/28 03:50:20;;;;;;;6.70;2.50;;;8.80;99.90;;;;;;5101851;28;20652;-43
2022/05/28 03:52:45;;;;;;;7.40;2.20;;;8.70;99.90;;;;;;5101601;28;20200;-43
2022/05/28 03:55:11;;;;;;;9.03;2.90;;;8.70;99.90;;;;;;5101954;28;20178;-44
2022/05/28 03:57:38;;;;;;;6.10;1.93;;;8.60;99.90;;;;;;5101679;28;20228;-40
2022/05/28 04:00:04;;;;;;;7.43;2.20;;;8.60;99.90;;;;;;5101283;28;20261;-42
2022/05/28 04:02:30;;;;;;;7.40;1.87;;;8.60;99.90;;;;;;5101220;28;20171;-43
2022/05/28 04:04:56;;;;;;;6.77;2.20;;;8.50;99.90;;;;;;5101482;28;20179;-45
2022/05/28 04:07:22;;;;;;;5.90;1.80;;;8.50;99.90;;;;;;5103834;28;20202;-44
2022/05/28 04:09:48;;;;;;;9.83;2.43;;;8.50;99.90;;;;;;5101514;28;20583;-42
2022/05/28 04:12:14;;;;;;;7.63;2.00;;;8.50;99.90;;;;;;5101388;28;20190;-42
2022/05/28 04:14:39;;;;;;;6.00;2.20;;;8.50;99.90;;;;;;5101891;28;20535;-42
2022/05/28 04:17:05;;;;;;;9.50;2.87;;;8.50;99.90;;;;;;5101070;28;20202;-41
2022/05/28 04:19:31;;;;;;;5.40;2.07;;;8.50;99.90;;;;;;5101145;28;20179;-43
2022/05/28 04:21:57;;;;;;;7.73;2.20;;;8.50;99.90;;;;;;5101189;28;20163;-43
2022/05/28 04:24:23;;;;;;;4.93;2.03;;;8.50;99.90;;;;;;5101796;28;20185;-42
2022/05/28 04:26:48;;;;;;;7.87;2.57;;;8.50;99.90;;;;;;5101641;28;20190;-42
2022/05/28 04:29:14;;;;;;;11.67;2.30;;;8.50;99.90;;;;;;5101320;28;20283;-43
2022/05/28 04:31:39;;;;;;;6.07;2.47;;;8.60;99.90;;;;;;5102705;28;20171;-41
2022/05/28 04:34:05;;;;;;;5.13;2.50;;;8.60;99.90;;;;;;5100468;28;20712;-44
2022/05/28 04:36:31;;;;;;;11.40;2.57;;;8.70;99.90;;;;;;5099571;28;20221;-43
2022/05/28 04:38:57;;;;;;;6.00;2.43;;;8.60;99.90;;;;;;5098995;28;20202;-43
2022/05/28 04:41:23;;;;;;;9.10;2.27;;;8.70;99.90;;;;;;5099927;28;20189;-44
2022/05/28 04:43:48;;;;;;;9.67;2.80;;;8.80;99.90;;;;;;5099776;28;20266;-43
2022/05/28 04:46:14;;;;;;;8.00;2.67;;;8.80;99.90;;;;;;5099655;28;20183;-41
2022/05/28 04:48:39;;;;;;;6.67;1.90;;;8.90;99.90;;;;;;5099043;28;20694;-42
2022/05/28 04:51:06;;;;;;;10.03;2.30;;;8.90;99.90;;;;;;5099661;28;20183;-44
2022/05/28 04:53:31;;;;;;;7.87;2.27;;;9.00;99.90;;;;;;5098886;28;20183;-41
2022/05/28 04:55:57;;;;;;;7.80;2.43;;;9.10;99.90;;;;;;5099551;28;20705;-43
2022/05/28 04:58:23;;;;;;;10.07;2.97;;;9.10;99.90;;;;;;5100729;28;20285;-42
2022/05/28 05:00:48;;;;;;;7.20;2.43;;;9.20;99.90;;;;;;5080557;28;20270;-44
2022/05/28 05:03:14;;;;;;;6.50;2.03;;;9.20;99.90;;;;;;5099208;28;20207;-41
2022/05/28 05:05:41;;;;;;;9.57;2.23;;;9.30;99.90;;;;;;5098281;28;20253;-43
2022/05/28 05:08:06;;;;;;;7.60;2.87;;;9.40;99.90;;;;;;5098191;28;20282;-41
2022/05/28 05:10:32;;;;;;;11.73;2.77;;;9.40;99.90;;;;;;5098434;28;20213;-42
2022/05/28 05:13:01;;;;;;;8.80;2.20;;;9.50;99.90;;;;;;5097617;28;20239;-44
2022/05/28 05:15:27;;;;;;;11.13;2.90;;;9.60;99.90;;;;;;5097473;28;20670;-44
2022/05/28 05:17:53;;;;;;;9.70;2.47;;;9.70;99.90;;;;;;5098966;28;20199;-42
2022/05/28 05:20:18;;;;;;;11.77;2.90;;;9.70;99.90;;;;;;5099089;28;20198;-43
2022/05/28 05:22:44;;;;;;;11.90;2.70;;;9.80;99.90;;;;;;5099071;28;20577;-42
2022/05/28 05:25:12;;;;;;;7.93;2.80;;;9.90;99.90;;;;;;5099031;28;20183;-44
2022/05/28 05:27:38;;;;;;;9.33;2.80;;;10.00;99.90;;;;;;5081702;28;20202;-42
2022/05/28 05:30:05;;;;;;;9.57;3.07;;;10.10;99.90;;;;;;5100697;28;20174;-42
2022/05/28 05:32:31;;;;;;;13.87;2.80;;;10.20;99.90;;;;;;5100653;28;20214;-43
2022/05/28 05:34:57;;;;;;;12.57;2.40;;;10.30;99.90;;;;;;5099828;28;20194;-42
2022/05/28 05:37:23;;;;;;;14.20;2.93;;;10.40;99.90;;;;;;5099441;28;20215;-41
2022/05/28 05:39:48;;;;;;;8.03;2.70;;;10.40;99.90;;;;;;5099996;28;20697;-43
2022/05/28 05:42:14;;;;;;;8.67;2.73;;;10.60;99.90;;;;;;5099769;28;20202;-44
2022/05/28 05:44:40;;;;;;;10.80;2.97;;;10.60;99.90;;;;;;5099976;28;20224;-43
2022/05/28 05:47:06;;;;;;;8.07;2.80;;;10.80;99.90;;;;;;5101009;28;20182;-42
2022/05/28 05:49:32;;;;;;;6.57;2.57;;;10.90;99.90;;;;;;5100199;28;20186;-44
2022/05/28 05:51:59;;;;;;;13.53;3.00;;;11.00;99.90;;;;;;5100618;28;20187;-42
2022/05/28 05:54:25;;;;;;;10.23;2.70;;;11.10;99.90;;;;;;5100961;28;20592;-44
2022/05/28 05:56:52;;;;;;;12.60;3.07;;;11.20;99.90;;;;;;5100593;28;20206;-44
2022/05/28 05:59:18;;;;;;;13.30;2.57;;;11.30;99.90;;;;;;5103209;28;20263;-42
2022/05/28 06:01:43;;;;;;;8.67;2.80;;;11.40;99.90;;;;;;5100125;28;20178;-42
2022/05/28 06:04:10;;;;;;;6.50;1.77;;;11.60;99.90;;;;;;5100240;28;20183;-45
2022/05/28 06:06:35;;;;;;;9.17;2.80;;;11.60;99.90;;;;;;5099477;28;20193;-43
2022/05/28 06:09:01;;;;;;;11.23;2.87;;;11.80;99.90;;;;;;5099198;28;20206;-43
2022/05/28 06:11:27;;;;;;;10.60;2.43;;;11.90;99.90;;;;;;5098275;28;20188;-42
2022/05/28 06:13:52;;;;;;;11.63;2.57;;;12.00;99.90;;;;;;5098428;28;20194;-44
2022/05/28 06:16:18;;;;;;;9.83;2.17;;;12.10;99.90;;;;;;5097858;28;20273;-41
2022/05/28 06:18:44;;;;;;;5.80;2.33;;;12.30;99.90;;;;;;5099229;28;20217;-42
2022/05/28 06:21:11;;;;;;;7.07;2.27;;;12.50;99.90;;;;;;5099078;28;20200;-41
2022/05/28 06:23:37;;;;;;;8.07;2.27;;;12.60;99.90;;;;;;5102175;28;20200;-43
2022/05/28 06:26:05;;;;;;;8.03;2.37;;;12.70;99.90;;;;;;5105583;28;20225;-44
2022/05/28 06:28:32;;;;;;;6.40;2.43;;;12.90;99.90;;;;;;5105068;28;20288;-43
2022/05/28 06:31:02;;;;;;;7.13;2.40;;;12.90;99.90;;;;;;5104043;28;20704;-42
2022/05/28 06:33:28;;;;;;;6.50;1.90;;;13.00;99.90;;;;;;5105103;28;20210;-44
2022/05/28 06:36:02;;;;;;;2.97;1.70;;;13.00;99.90;;;;;;5086670;28;20208;-43
2022/05/28 06:38:28;;;;;;;7.47;1.97;;;13.20;99.90;;;;;;5104544;28;20248;-42
2022/05/28 06:40:54;;;;;;;7.13;2.03;;;13.30;99.90;;;;;;5104851;28;20182;-43
2022/05/28 06:43:20;;;;;;;2.97;1.00;;;13.30;99.90;;;;;;5104397;28;20626;-41
2022/05/28 06:45:46;;;;;;;8.00;2.00;;;13.30;99.90;;;;;;5104460;28;20185;-42
2022/05/28 06:48:12;;;;;;;8.23;1.90;;;13.30;99.90;;;;;;5085807;28;20222;-44
2022/05/28 06:53:22;;;;;;;8.10;1.67;;;13.40;99.90;;;;;;5103764;28;20201;-42
2022/05/28 06:55:48;;;;;;;8.47;1.97;;;13.70;99.90;;;;;;5103114;28;20210;-44
2022/05/28 06:58:14;;;;;;;8.43;1.77;;;14.00;99.90;;;;;;5101923;28;20197;-45
2022/05/28 07:00:40;;;;;;;5.20;1.20;;;14.30;99.90;;;;;;5083936;28;20576;-44
2022/05/28 07:03:11;;;;;;;5.07;1.37;;;14.40;99.90;;;;;;5102489;28;20675;-43
2022/05/28 07:05:37;;;;;;;5.37;1.27;;;14.40;99.90;;;;;;5102819;28;20179;-41
2022/05/28 07:08:02;;;;;;;6.00;1.23;;;14.40;99.90;;;;;;5103453;28;20291;-43
2022/05/28 07:10:28;;;;;;;7.03;1.20;;;14.40;99.90;;;;;;5102896;28;20171;-43
2022/05/28 07:12:54;;;;;;;5.00;1.20;;;14.30;99.90;;;;;;5104616;28;20199;-44
2022/05/28 07:15:19;;;;;;;5.50;1.23;;;14.30;99.90;;;;;;5103062;28;20190;-44
2022/05/28 07:17:45;;;;;;;3.73;1.10;;;14.40;99.90;;;;;;5101787;28;20195;-42
2022/05/28 07:20:12;;;;;;;4.63;1.20;;;14.30;99.90;;;;;;5101641;28;20271;-43
2022/05/28 07:22:37;;;;;;;5.40;1.50;;;14.40;99.90;;;;;;5100855;28;20183;-44
2022/05/28 07:25:03;;;;;;;4.17;1.00;;;14.40;99.90;;;;;;5101309;28;20182;-43
2022/05/28 07:27:32;;;;;;;3.73;0.90;;;14.30;99.90;;;;;;5100836;28;20199;-43
2022/05/28 07:29:58;;;;;;;4.73;1.30;;;14.30;99.90;;;;;;5082983;28;20183;-42
2022/05/28 07:32:28;;;;;;;5.27;1.53;;;14.10;99.90;;;;;;5082136;28;20183;-42
2022/05/28 07:34:53;;;;;;;5.93;1.40;;;14.10;99.90;;;;;;5100180;28;20190;-46
2022/05/28 07:37:19;;;;;;;6.93;1.40;;;14.20;99.90;;;;;;5099475;28;20210;-43
2022/05/28 07:39:44;;;;;;;4.50;1.50;;;14.30;99.90;;;;;;5099713;28;20175;-45
2022/05/28 07:42:10;;;;;;;8.00;1.57;;;14.20;99.90;;;;;;5099664;28;20171;-44
2022/05/28 07:44:36;;;;;;;3.40;1.10;;;14.40;99.90;;;;;;5100344;28;20179;-42
2022/05/28 07:47:06;;;;;;;5.33;1.20;;;14.50;99.90;;;;;;5099552;28;20179;-46
2022/05/28 07:49:32;;;;;;;3.33;1.00;;;14.70;99.90;;;;;;5099919;28;20715;-44
2022/05/28 07:51:57;;;;;;;3.23;1.23;;;14.90;99.90;;;;;;5098140;28;20191;-43
2022/05/28 07:54:23;;;;;;;3.77;1.20;;;15.20;99.90;;;;;;5078568;28;20206;-40
2022/05/28 07:56:48;;;;;;;4.67;1.43;;;15.30;99.90;;;;;;5096908;28;20714;-40
2022/05/28 07:59:14;;;;;;;4.17;1.43;;;15.40;99.90;;;;;;5097769;28;20222;-43
2022/05/28 08:01:40;;;;;;;3.33;0.90;;;15.30;99.90;;;;;;5096754;28;20186;-43
2022/05/28 08:04:07;;;;;;;3.13;1.20;;;15.20;99.90;;;;;;5095958;28;20183;-42
2022/05/28 08:06:33;;;;;;;4.27;1.20;;;15.30;99.90;;;;;;5095598;28;20262;-42
2022/05/28 08:09:00;;;;;;;5.17;0.97;;;15.30;99.90;;;;;;5095704;28;20670;-44
2022/05/28 08:11:26;;;;;;;2.73;1.07;;;15.20;99.90;;;;;;5095602;28;20233;-43
2022/05/28 08:13:53;;;;;;;1.77;0.90;;;15.30;99.90;;;;;;5095196;28;20667;-44
2022/05/28 08:16:19;;;;;;;4.03;1.20;;;15.20;99.90;;;;;;5095471;28;20211;-43
2022/05/28 08:18:45;;;;;;;3.83;1.07;;;15.30;99.90;;;;;;5095613;28;20191;-43
2022/05/28 08:23:56;;;;;;;3.57;1.20;;;15.60;99.90;;;;;;5095772;28;20166;-42
2022/05/28 08:26:22;;;;;;;4.63;0.90;;;15.70;99.90;;;;;;5095371;28;20179;-44
2022/05/28 08:28:49;;;;;;;2.07;0.83;;;15.80;99.90;;;;;;5076914;28;20287;-44
2022/05/28 08:31:15;;;;;;;6.17;1.00;;;15.80;99.90;;;;;;5077108;28;20187;-44
2022/05/28 08:33:42;;;;;;;2.77;1.00;;;15.80;99.90;;;;;;5095430;28;20324;-44
2022/05/28 08:36:08;;;;;;;4.47;1.10;;;15.90;99.90;;;;;;5095178;28;20222;-42
2022/05/28 08:38:34;;;;;;;2.93;0.83;;;15.90;99.90;;;;;;5097455;28;20194;-43
2022/05/28 08:41:07;;;;;;;2.57;0.97;;;15.90;99.90;;;;;;5094908;28;20198;-43
2022/05/28 08:43:36;;;;;;;4.93;0.90;;;15.90;99.90;;;;;;5095202;28;20576;-44
2022/05/28 08:46:03;;;;;;;8.13;1.07;;;16.00;99.90;;;;;;5096983;28;20659;-43
2022/05/28 08:48:40;;;;;;;4.57;1.30;;;16.00;99.90;;;;;;5094737;28;20263;-44
2022/05/28 08:51:10;;;;;;;3.33;0.80;;;16.00;99.90;;;;;;5094933;28;20213;-44
2022/05/28 08:53:44;;;;;;;9.47;1.77;;;15.90;99.90;;;;;;5095554;28;20623;-43
2022/05/28 08:56:15;;;;;;;5.40;1.30;;;15.80;99.90;;;;;;5094801;28;20205;-40
2022/05/28 08:58:43;;;;;;;2.13;0.93;;;15.70;99.90;;;;;;5094594;28;20197;-40
2022/05/28 09:01:16;;;;;;;4.10;0.80;;;15.90;99.90;;;;;;5094535;28;20279;-39
2022/05/28 09:03:54;;;;;;;1.43;0.60;;;16.00;99.90;;;;;;5094804;28;20607;-38
2022/05/28 09:06:24;;;;;;;2.83;0.70;;;16.20;99.90;;;;;;5094502;28;20167;-37
2022/05/28 09:08:56;;;;;;;8.60;1.63;;;16.20;99.90;;;;;;5094298;28;20195;-38
2022/05/28 09:11:31;;;;;;;4.60;1.80;;;16.20;99.90;;;;;;5076226;28;20219;-38
2022/05/28 09:13:57;;;;;;;3.40;1.10;;;16.10;99.90;;;;;;5094181;28;20175;-40
2022/05/28 09:16:28;;;;;;;1.23;0.60;;;16.00;99.90;;;;;;5094056;28;20203;-41
2022/05/28 09:18:57;;;;;;;6.07;1.50;;;16.00;99.90;;;;;;5094296;28;20202;-37
2022/05/28 09:21:23;;;;;;;2.40;0.90;;;16.00;99.90;;;;;;5093874;28;20255;-39
2022/05/28 09:24:00;;;;;;;4.90;0.90;;;16.10;99.90;;;;;;5094295;28;20265;-41
2022/05/28 09:26:38;;;;;;;5.07;0.90;;;16.40;99.90;;;;;;5094293;28;20576;-38
2022/05/28 09:29:19;;;;;;;3.10;0.90;;;16.60;99.90;;;;;;5094224;28;20260;-40
2022/05/28 09:32:11;;;;;;;3.87;0.83;;;16.90;99.90;;;;;;5093976;28;20201;-37
2022/05/28 09:34:49;;;;;;;3.03;1.03;;;16.90;99.90;;;;;;5093881;28;20763;-38
2022/05/28 09:37:31;;;;;;;3.00;1.10;;;16.70;99.90;;;;;;5093997;28;20191;-40
2022/05/28 09:40:15;;;;;;;0.83;0.60;;;16.60;99.90;;;;;;5093803;28;20680;-39
2022/05/28 09:43:13;;;;;;;2.33;1.00;;;16.80;99.90;;;;;;5093798;28;20170;-40
2022/05/28 09:45:57;;;;;;;3.70;0.80;;;16.80;99.90;;;;;;5094271;28;20167;-40
2022/05/28 09:48:26;;;;;;;3.97;1.10;;;16.80;99.90;;;;;;5093776;28;20234;-41
2022/05/28 09:50:52;;;;;;;3.43;1.00;;;16.90;99.90;;;;;;5075480;28;20718;-40
2022/05/28 09:56:36;;;;;;;1.40;0.60;;;16.70;99.90;;;;;;5093843;28;20220;-39
2022/05/28 09:59:21;;;;;;;1.73;0.90;;;16.90;99.90;;;;;;5093328;28;20213;-39
2022/05/28 10:01:53;;;;;;;5.60;1.20;;;17.10;99.90;;;;;;5093943;28;20262;-40
2022/05/28 10:04:31;;;;;;;4.53;1.00;;;17.20;99.90;;;;;;5093425;28;20178;-39
2022/05/28 10:07:02;;;;;;;3.00;0.70;;;17.30;99.90;;;;;;5093565;28;20170;-41
2022/05/28 10:09:32;;;;;;;6.40;0.80;;;17.10;99.90;;;;;;5093818;28;20170;-40
2022/05/28 10:12:12;;;;;;;0.80;0.63;;;16.90;99.90;;;;;;5093407;28;20594;-41
2022/05/28 10:14:38;;;;;;;4.60;0.90;;;16.70;99.90;;;;;;5093643;28;20171;-39
2022/05/28 10:17:04;;;;;;;4.07;0.90;;;16.80;99.90;;;;;;5093242;28;20202;-38
2022/05/28 10:19:42;;;;;;;7.43;1.10;;;17.00;99.90;;;;;;5093391;28;20638;-39
2022/05/28 10:22:37;;;;;;;7.03;1.00;;;17.20;99.90;;;;;;5093561;28;20190;-40
2022/05/28 10:25:12;;;;;;;4.57;1.00;;;17.30;99.90;;;;;;5092521;28;20183;-40
2022/05/28 10:27:48;;;;;;;1.53;0.63;;;17.30;99.90;;;;;;5093465;28;20213;-38
2022/05/28 10:30:36;;;;;;;5.83;1.00;;;17.40;99.90;;;;;;5093548;28;20159;-41
2022/05/28 10:33:11;;;;;;;2.77;0.93;;;17.60;99.90;;;;;;5094021;28;20703;-41
2022/05/28 10:35:38;;;;;;;3.03;0.97;;;17.60;99.90;;;;;;5075195;28;20202;-40
2022/05/28 10:38:16;;;;;;;3.13;0.67;;;17.60;99.90;;;;;;5093210;28;20257;-40
2022/05/28 10:40:54;;;;;;;2.00;0.60;;;17.60;99.90;;;;;;5094104;28;20261;-41
2022/05/28 10:43:25;;;;;;;2.87;0.93;;;17.60;99.90;;;;;;5093331;28;20250;-40
2022/05/28 10:45:58;;;;;;;1.67;0.77;;;17.70;99.90;;;;;;5093011;28;20187;-39
2022/05/28 10:48:30;;;;;;;4.20;1.10;;;17.80;99.90;;;;;;5093264;28;20234;-37
2022/05/28 10:51:18;;;;;;;3.47;0.80;;;17.80;99.90;;;;;;5093264;28;20178;-40
2022/05/28 10:53:59;;;;;;;1.63;0.60;;;17.80;99.90;;;;;;5093319;28;20163;-40
2022/05/28 10:56:44;;;;;;;1.77;1.03;;;17.80;99.90;;;;;;5093051;28;20205;-41
2022/05/28 10:59:22;;;;;;;2.93;0.90;;;17.70;99.90;;;;;;5092891;28;20199;-40
2022/05/28 11:02:09;;;;;;;3.33;1.10;;;17.80;99.90;;;;;;5093142;28;20254;-41
2022/05/28 11:04:37;;;;;;;1.90;0.70;;;17.80;99.90;;;;;;5093266;28;20611;-41
2022/05/28 11:07:23;;;;;;;1.67;1.00;;;17.90;99.90;;;;;;5093073;28;20184;-43
2022/05/28 11:10:36;;;;;;;1.30;0.53;;;18.10;99.90;;;;;;5094218;28;20181;-40
2022/05/28 11:13:16;;;;;;;2.20;0.70;;;18.40;99.90;;;;;;5035034;28;20534;-41
2022/05/28 11:15:54;;;;;;;2.83;0.63;;;18.70;99.90;;;;;;5096726;28;20198;-39
2022/05/28 11:18:54;;;;;;;1.13;0.70;;;19.00;99.90;;;;;;5096309;28;20247;-41
2022/05/28 11:21:34;;;;;;;2.93;0.73;;;18.90;99.40;;;;;;5096631;28;20186;-37
2022/05/28 11:24:37;;;;;;;3.90;1.30;;;18.60;99.90;;;;;;5096662;28;20232;-40
2022/05/28 11:27:22;;;;;;;4.93;1.20;;;18.20;99.90;;;;;;5078556;28;20523;-40
2022/05/28 11:29:53;;;;;;;2.07;0.93;;;17.90;99.90;;;;;;5096658;28;20273;-40
2022/05/28 11:32:27;;;;;;;5.67;0.97;;;17.70;99.90;;;;;;5078149;28;20273;-40
2022/05/28 11:34:58;;;;;;;1.90;0.80;;;17.90;99.90;;;;;;5096512;28;20253;-39
2022/05/28 11:37:47;;;;;;;10.13;2.13;;;18.00;99.90;;;;;;5096420;28;20210;-40
2022/05/28 11:40:29;;;;;;;15.53;1.87;;;18.00;99.90;;;;;;5085661;28;20187;-40
2022/05/28 11:43:16;;;;;;;3.83;1.00;;;17.90;99.90;;;;;;5096328;28;20214;-39
2022/05/28 11:46:12;;;;;;;1.97;1.00;;;17.80;99.90;;;;;;5097122;28;20209;-39
2022/05/28 11:51:57;;;;;;;2.57;0.83;;;18.00;99.90;;;;;;5097156;28;20524;-40
2022/05/28 11:54:36;;;;;;;1.10;0.67;;;18.00;99.90;;;;;;5096235;28;20216;-41
2022/05/28 11:57:07;;;;;;;4.83;1.23;;;18.00;99.90;;;;;;5096573;28;20194;-41
2022/05/28 11:59:35;;;;;;;6.03;1.27;;;18.10;99.90;;;;;;5097502;28;20252;-38
2022/05/28 12:02:12;;;;;;;2.63;0.70;;;18.40;99.90;;;;;;5101176;28;20221;-41
2022/05/28 12:04:42;;;;;;;4.37;1.20;;;18.70;99.90;;;;;;5097103;28;20177;-41
2022/05/28 12:07:23;;;;;;;2.77;0.80;;;18.90;99.90;;;;;;5099167;28;20171;-40
2022/05/28 12:09:49;;;;;;;2.80;1.20;;;18.80;99.90;;;;;;5101366;28;20166;-39
2022/05/28 12:12:19;;;;;;;3.97;1.20;;;18.60;99.30;;;;;;5100840;28;20179;-40
2022/05/28 12:14:48;;;;;;;2.37;1.27;;;18.20;99.50;;;;;;5101654;28;20179;-39
2022/05/28 12:17:19;;;;;;;1.90;0.70;;;18.10;99.40;;;;;;5101044;28;20211;-38
2022/05/28 12:19:50;;;;;;;3.27;0.90;;;18.20;99.90;;;;;;5103247;28;20265;-39
2022/05/28 12:22:32;;;;;;;4.93;0.70;;;18.50;99.90;;;;;;5102566;28;20167;-40
2022/05/28 12:25:13;;;;;;;2.03;0.80;;;18.80;99.90;;;;;;5103942;28;20171;-40
2022/05/28 12:27:44;;;;;;;3.30;1.00;;;18.90;99.90;;;;;;5097517;28;20215;-39
2022/05/28 12:30:48;;;;;;;1.27;0.70;;;18.90;99.90;;;;;;5095745;28;20167;-37
2022/05/28 12:33:19;;;;;;;4.63;1.03;;;18.70;99.00;;;;;;5013568;28;20189;-40
2022/05/28 12:36:03;;;;;;;3.30;0.60;;;18.60;97.90;;;;;;5083259;28;20214;-40
2022/05/28 12:39:01;;;;;;;3.93;1.00;;;18.60;99.90;;;;;;5095016;28;20197;-40
2022/05/28 12:41:33;;;;;;;4.07;0.70;;;18.70;99.90;;;;;;5095362;28;20171;-40
2022/05/28 12:44:09;;;;;;;3.90;1.00;;;18.80;99.90;;;;;;5095109;28;20185;-39
2022/05/28 12:46:59;;;;;;;1.83;1.00;;;19.00;99.90;;;;;;5095169;28;20171;-40
2022/05/28 12:49:37;;;;;;;2.83;0.80;;;19.10;99.90;;;;;;5094832;28;20205;-41
2022/05/28 12:52:28;;;;;;;2.40;0.87;;;19.10;99.90;;;;;;5094811;28;20170;-39
2022/05/28 12:55:20;;;;;;;4.67;1.00;;;18.90;99.80;;;;;;5076657;28;20179;-39
2022/05/28 12:58:02;;;;;;;4.80;1.07;;;18.80;99.80;;;;;;5094573;28;20210;-40
2022/05/28 13:00:36;;;;;;;2.73;1.00;;;18.80;99.90;;;;;;5094393;28;20175;-40
2022/05/28 13:03:06;;;;;;;5.00;1.27;;;18.70;99.90;;;;;;5095502;28;20187;-41
2022/05/28 13:05:43;;;;;;;2.83;0.80;;;18.40;98.20;;;;;;5076765;28;20171;-39
2022/05/28 13:08:11;;;;;;;5.80;1.23;;;18.30;98.30;;;;;;5094671;28;20666;-40
2022/05/28 13:10:37;;;;;;;2.73;1.10;;;18.10;99.90;;;;;;5094951;28;20175;-40
2022/05/28 13:13:26;;;;;;;4.30;0.90;;;18.10;99.70;;;;;;5094679;28;20269;-41
2022/05/28 13:16:03;;;;;;;2.53;1.00;;;18.30;98.80;;;;;;5094952;28;20285;-39
2022/05/28 13:18:29;;;;;;;4.47;1.47;;;18.10;98.30;;;;;;5094818;28;20218;-39
2022/05/28 13:21:35;;;;;;;3.30;1.00;;;18.00;99.10;;;;;;5076230;28;20215;-39